This is the latest recevied weather packets stored in our database for station/object EA7HQL-10. If no packets are shown the sender has not sent any weather packets the latest 1 day(s).
| Time | Temp. | Humidity | Pressure | Rain* | Wind** | Luminosity | Snow |
|---|---|---|---|---|---|---|---|
| 1778056730 | 20° C | 50% | 1009 hPa | 0 mm | 0.45 m/s, 110° | - | - |
| 1778056485 | 20° C | 52% | 1008.9 hPa | 0 mm | 1.79 m/s, 113° | - | - |
| 1778056230 | 20° C | 49% | 1009 hPa | 0 mm | 1.79 m/s, 145° | - | - |
| 1778055955 | 19.44° C | 52% | 1008.9 hPa | 0 mm | 0.45 m/s, 134° | - | - |
| 1778055670 | 20° C | 53% | 1008.8 hPa | 0 mm | 1.79 m/s, 133° | - | - |
| 1778055425 | 19.44° C | 53% | 1008.9 hPa | 0 mm | 1.34 m/s, 146° | - | - |
| 1778055145 | 19.44° C | 55% | 1008.8 hPa | 0 mm | 3.58 m/s, 143° | - | - |
| 1778054865 | 19.44° C | 54% | 1008.9 hPa | 0 mm | 1.79 m/s, 141° | - | - |
| 1778054595 | 20° C | 53% | 1008.7 hPa | 0 mm | 3.58 m/s, 140° | - | - |
| 1778054330 | 20° C | 51% | 1008.6 hPa | 0 mm | 3.58 m/s, 138° | - | - |
| 1778054075 | 20.56° C | 41% | 1008.3 hPa | 0 mm | 2.68 m/s, 301° | - | - |
| 1778053784 | 20.56° C | 42% | 1008.2 hPa | 0 mm | 2.24 m/s, 318° | - | - |
| 1778053535 | 20.56° C | 42% | 1008.3 hPa | 0 mm | 1.79 m/s, 343° | - | - |
| 1778053275 | 20.56° C | 42% | 1008.6 hPa | 0 mm | 1.79 m/s, 340° | - | - |
| 1778053025 | 20.56° C | 42% | 1008.3 hPa | 0 mm | 2.68 m/s, 276° | - | - |
| 1778052723 | 20° C | 43% | 1008.3 hPa | 0 mm | 2.68 m/s, 329° | - | - |
| 1778052450 | 20° C | 43% | 1008.3 hPa | 0 mm | 3.58 m/s, 315° | - | - |
| 1778052165 | 20° C | 44% | 1008.1 hPa | 0 mm | 3.58 m/s, 325° | - | - |
| 1778051915 | 20° C | 44% | 1008.1 hPa | 0 mm | 1.79 m/s, 251° | - | - |
| 1778051625 | 19.44° C | 45% | 1008.5 hPa | 0 mm | 2.68 m/s, 231° | - | - |
| 1778051375 | 19.44° C | 45% | 1008.1 hPa | 0 mm | 2.24 m/s, 133° | - | - |
| 1778051095 | 19.44° C | 45% | 1008.2 hPa | 0 mm | 2.68 m/s, 257° | - | - |
| 1778050820 | 19.44° C | 45% | 1008.1 hPa | 0 mm | 2.24 m/s, 251° | - | - |
| 1778050520 | 19.44° C | 45% | 1008.2 hPa | 0 mm | 2.68 m/s, 317° | - | - |
| 1778050265 | 19.44° C | 45% | 1008.2 hPa | 0 mm | 1.34 m/s, 322° | - | - |
* Rain latest hour (hover to see other rain measurements)
** Current wind speed in m/s (hover to see current wind gust speed)